Time;durP1;ratioP1;P1;durP2;ratioP2;P2;SDS_P1;SDS_P2;PMS_P1;PMS_P2;Temp;Humidity;BMP_temperature;BMP_pressure;BME280_temperature;BME280_humidity;BME280_pressure;Samples;Min_cycle;Max_cycle;Signal;HPM_P1;HPM_P2
2022/05/28 00:00:01;;;;;;;6.55;1.45;;;;;;;9.81;62.97;100229.50;1774801;80;21515;-68
2022/05/28 00:02:27;;;;;;;8.45;1.47;;;;;;;9.83;63.01;100227.48;1765814;79;21041;-68
2022/05/28 00:04:53;;;;;;;13.80;1.90;;;;;;;9.89;63.04;100225.47;1778349;80;20975;-68
2022/05/28 00:07:19;;;;;;;7.78;1.47;;;;;;;9.91;63.02;100228.31;1771623;79;21104;-68
2022/05/28 00:09:45;;;;;;;7.00;1.72;;;;;;;9.89;63.04;100225.47;1770781;81;20991;-68
2022/05/28 00:12:11;;;;;;;6.50;1.40;;;;;;;9.87;63.05;100231.47;1783435;78;21077;-68
2022/05/28 00:14:37;;;;;;;6.28;1.52;;;;;;;9.85;63.09;100222.84;1800707;79;20919;-68
2022/05/28 00:17:03;;;;;;;5.90;1.05;;;;;;;9.84;63.08;100223.33;1797620;79;21049;-68
2022/05/28 00:19:29;;;;;;;8.15;1.65;;;;;;;9.85;63.10;100221.50;1791779;78;21092;-68
2022/05/28 00:21:55;;;;;;;7.10;1.75;;;;;;;9.85;63.11;100220.98;1787056;80;21027;-68
2022/05/28 00:24:21;;;;;;;9.90;2.15;;;;;;;9.88;63.14;100225.16;1786957;80;20915;-68
2022/05/28 00:26:48;;;;;;;7.10;1.57;;;;;;;9.92;63.17;100219.83;1787141;79;20975;-68
2022/05/28 00:29:14;;;;;;;7.72;1.47;;;;;;;9.97;63.22;100221.46;1778182;79;21026;-68
2022/05/28 00:31:40;;;;;;;8.83;1.98;;;;;;;10.01;63.21;100220.13;1771261;81;21955;-68
2022/05/28 00:34:06;;;;;;;8.43;1.60;;;;;;;10.01;63.24;100216.13;1770703;81;20883;-68
2022/05/28 00:36:32;;;;;;;7.85;1.35;;;;;;;9.98;63.26;100219.13;1775653;78;21541;-68
2022/05/28 00:38:58;;;;;;;6.15;1.57;;;;;;;9.97;63.30;100216.97;1802572;79;20876;-68
2022/05/28 00:41:24;;;;;;;8.00;1.70;;;;;;;9.97;63.35;100214.80;1802987;79;21427;-68
2022/05/28 00:43:50;;;;;;;6.03;1.57;;;;;;;10.01;63.40;100210.30;1802897;79;21075;-68
2022/05/28 00:46:23;;;;;;;8.33;1.87;;;;;;;10.04;63.42;100201.12;1802139;79;21491;-68
2022/05/28 00:48:53;;;;;;;4.83;1.70;;;;;;;10.03;63.39;100203.45;1771155;81;21002;-68
2022/05/28 00:51:27;;;;;;;8.48;1.72;;;;;;;9.99;63.41;100202.16;1771317;80;21398;-68
2022/05/28 00:53:56;;;;;;;7.08;2.10;;;;;;;9.93;63.42;100202.33;1771286;80;21093;-68
2022/05/28 00:59:34;;;;;;;7.45;1.62;;;;;;;9.78;63.54;100195.22;1783720;78;20985;-68
2022/05/28 01:02:13;;;;;;;6.47;1.50;;;;;;;9.79;63.58;100194.20;1751552;81;20988;-68
2022/05/28 01:05:17;;;;;;;9.25;1.82;;;;;;;9.76;63.63;100201.20;1736846;82;21040;-68
2022/05/28 01:08:20;;;;;;;6.67;1.80;;;;;;;9.73;63.68;100194.88;1736681;82;21374;-68
2022/05/28 01:11:17;;;;;;;7.72;1.60;;;;;;;9.69;63.72;100192.22;1736734;82;21197;-68
2022/05/28 01:14:20;;;;;;;5.40;1.42;;;;;;;9.64;63.80;100193.25;1736547;82;20985;-69
2022/05/28 01:17:00;;;;;;;8.25;1.40;;;;;;;9.61;63.89;100193.56;1736928;82;21008;-68
2022/05/28 01:20:02;;;;;;;6.42;1.72;;;;;;;9.54;63.98;100194.23;1737147;82;21032;-68
2022/05/28 01:22:59;;;;;;;9.60;1.92;;;;;;;9.50;64.05;100194.23;1648870;87;21068;-68
2022/05/28 01:26:10;;;;;;;8.35;1.95;;;;;;;9.42;64.17;100190.28;1648868;87;21156;-68
2022/05/28 01:28:43;;;;;;;9.85;1.98;;;;;;;9.39;64.29;100190.58;1729300;82;20964;-68
2022/05/28 01:31:09;;;;;;;6.03;1.60;;;;;;;9.38;64.42;100184.95;1736858;82;21060;-68
2022/05/28 01:33:35;;;;;;;5.10;1.70;;;;;;;9.39;64.54;100183.93;1711782;82;20942;-68
2022/05/28 01:36:07;;;;;;;9.00;1.82;;;;;;;9.40;64.67;100191.42;1736811;82;20992;-68
2022/05/28 01:38:34;;;;;;;7.30;1.70;;;;;;;9.38;64.78;100190.77;1736892;82;21161;-68
2022/05/28 01:41:00;;;;;;;10.05;1.35;;;;;;;9.36;64.88;100190.92;1741491;79;21613;-68
2022/05/28 01:43:26;;;;;;;4.58;1.20;;;;;;;9.33;64.99;100190.42;1793899;79;21014;-68
2022/05/28 01:45:52;;;;;;;3.67;0.98;;;;;;;9.29;65.08;100187.27;1798700;79;21049;-68
2022/05/28 01:48:19;;;;;;;3.00;1.00;;;;;;;9.25;65.20;100195.27;1799137;79;20863;-68
2022/05/28 01:50:48;;;;;;;3.90;1.30;;;;;;;9.24;65.29;100186.95;1796802;79;21694;-68
2022/05/28 01:56:03;;;;;;;6.90;1.80;;;;;;;9.19;65.37;100193.75;1798266;79;20966;-68
2022/05/28 01:58:29;;;;;;;8.15;1.32;;;;;;;9.17;65.46;100191.27;1798533;79;20959;-68
2022/05/28 02:00:55;;;;;;;4.83;1.37;;;;;;;9.15;65.49;100179.95;1796716;79;20992;-68
2022/05/28 02:03:21;;;;;;;5.35;1.15;;;;;;;9.11;65.57;100179.98;1798750;79;21224;-68
2022/05/28 02:05:47;;;;;;;10.30;1.55;;;;;;;9.10;65.65;100184.12;1798624;79;20977;-68
2022/05/28 02:08:13;;;;;;;4.50;0.98;;;;;;;9.05;65.72;100184.61;1798651;79;21493;-68
2022/05/28 02:10:40;;;;;;;5.03;1.32;;;;;;;9.03;65.79;100189.27;1798810;79;21001;-68
2022/05/28 02:13:13;;;;;;;8.83;1.72;;;;;;;8.98;65.87;100181.78;1790444;79;20998;-68
2022/05/28 02:15:51;;;;;;;4.65;1.20;;;;;;;8.95;65.96;100187.43;1798524;79;21080;-68
2022/05/28 02:18:42;;;;;;;4.83;1.20;;;;;;;8.91;66.04;100183.92;1798656;79;21013;-69
2022/05/28 02:21:18;;;;;;;4.72;0.93;;;;;;;8.89;66.16;100171.30;1795738;79;21047;-68
2022/05/28 02:23:52;;;;;;;8.38;1.45;;;;;;;8.85;66.30;100185.92;1798133;79;21517;-69
2022/05/28 02:26:39;;;;;;;9.15;1.52;;;;;;;8.84;66.34;100181.59;1798533;79;20950;-69
2022/05/28 02:29:05;;;;;;;4.83;1.17;;;;;;;8.78;66.37;100179.59;1757713;79;21246;-69
2022/05/28 02:31:33;;;;;;;4.17;1.30;;;;;;;8.75;66.46;100177.27;1796065;79;21705;-68
2022/05/28 02:33:59;;;;;;;6.20;1.37;;;;;;;8.72;66.53;100173.61;1798861;79;21377;-68
2022/05/28 02:36:26;;;;;;;5.50;1.35;;;;;;;8.68;66.56;100177.09;1798901;79;20950;-68
2022/05/28 02:38:52;;;;;;;6.60;1.20;;;;;;;8.64;66.60;100177.57;1798872;79;21045;-68
2022/05/28 02:41:19;;;;;;;5.05;1.50;;;;;;;8.56;66.65;100174.39;1797216;79;21126;-68
2022/05/28 02:43:45;;;;;;;5.95;1.25;;;;;;;8.52;66.71;100173.88;1798695;79;20962;-68
2022/05/28 02:46:12;;;;;;;7.17;1.90;;;;;;;8.50;66.77;100173.23;1798920;79;21009;-68
2022/05/28 02:48:39;;;;;;;5.87;1.22;;;;;;;8.47;66.85;100178.03;1798516;79;21010;-68
2022/05/28 02:51:13;;;;;;;6.45;0.90;;;;;;;8.47;66.93;100172.23;1797352;79;21084;-68
2022/05/28 02:53:39;;;;;;;4.80;1.35;;;;;;;8.50;66.99;100177.22;1773422;79;21094;-68
2022/05/28 02:56:06;;;;;;;5.60;1.35;;;;;;;8.52;67.04;100165.91;1798721;79;21450;-68
2022/05/28 02:58:32;;;;;;;3.42;1.30;;;;;;;8.56;67.11;100169.57;1795692;79;20994;-68
2022/05/28 03:00:58;;;;;;;5.47;1.30;;;;;;;8.56;67.14;100163.77;1798387;79;21005;-68
2022/05/28 03:03:24;;;;;;;6.17;1.37;;;;;;;8.58;67.18;100159.13;1799007;79;21005;-68
2022/05/28 03:05:51;;;;;;;4.10;1.00;;;;;;;8.59;67.30;100161.27;1798668;79;21138;-68
2022/05/28 03:08:17;;;;;;;4.22;1.42;;;;;;;8.62;67.33;100164.95;1797440;79;21009;-68
2022/05/28 03:10:43;;;;;;;9.25;1.30;;;;;;;8.64;67.36;100161.63;1798994;79;20966;-68
2022/05/28 03:13:09;;;;;;;5.30;1.05;;;;;;;8.66;67.42;100168.92;1798935;79;20962;-68
2022/05/28 03:15:35;;;;;;;7.95;1.50;;;;;;;8.70;67.48;100163.62;1799072;79;20971;-68
2022/05/28 03:18:01;;;;;;;4.60;0.90;;;;;;;8.72;67.53;100164.30;1795002;79;21299;-68
2022/05/28 03:20:28;;;;;;;6.80;1.42;;;;;;;8.71;67.57;100167.45;1797888;79;21010;-68
2022/05/28 03:22:55;;;;;;;4.40;1.25;;;;;;;8.70;67.65;100162.29;1798871;79;20965;-68
2022/05/28 03:25:21;;;;;;;6.05;1.25;;;;;;;8.72;67.66;100158.98;1798836;79;21025;-68
2022/05/28 03:27:47;;;;;;;5.03;1.20;;;;;;;8.70;67.69;100163.62;1797234;79;21009;-68
2022/05/28 03:30:14;;;;;;;4.50;1.07;;;;;;;8.71;67.72;100163.47;1798902;79;21792;-68
2022/05/28 03:32:40;;;;;;;6.45;1.20;;;;;;;8.80;67.81;100166.95;1799000;79;21014;-68
2022/05/28 03:35:06;;;;;;;8.53;1.92;;;;;;;8.97;67.89;100160.69;1798913;79;21320;-68
2022/05/28 03:37:32;;;;;;;5.78;1.85;;;;;;;9.58;68.12;100157.96;1796726;79;20974;-69
2022/05/28 03:39:58;;;;;;;3.85;1.15;;;;;;;10.09;67.93;100162.83;1798730;79;21026;-69
2022/05/28 03:42:24;;;;;;;6.12;1.32;;;;;;;10.43;67.62;100150.03;1799072;79;21112;-69
2022/05/28 03:44:50;;;;;;;5.47;1.15;;;;;;;10.11;67.16;100156.80;1798787;79;20986;-69
2022/05/28 03:47:16;;;;;;;5.67;1.30;;;;;;;9.98;67.02;100157.37;1797119;79;20980;-69
2022/05/28 03:49:43;;;;;;;6.20;1.77;;;;;;;10.57;67.43;100149.78;1798866;79;21600;-69
2022/05/28 03:52:10;;;;;;;7.25;1.35;;;;;;;11.40;67.19;100145.78;1798911;79;20970;-69
2022/05/28 03:54:43;;;;;;;6.72;1.30;;;;;;;12.07;66.80;100145.26;1798989;79;21516;-69
2022/05/28 03:57:07;;;;;;;6.60;1.37;;;;;;;12.26;66.16;100149.21;1795081;79;21014;-69
2022/05/28 03:59:34;;;;;;;11.00;2.15;;;;;;;12.69;65.71;100144.78;1797311;79;20963;-69
2022/05/28 04:02:01;;;;;;;9.10;1.55;;;;;;;12.59;64.84;100146.94;1798372;79;20958;-69
2022/05/28 04:04:28;;;;;;;8.48;1.45;;;;;;;11.52;64.35;100149.19;1798887;79;21407;-69
2022/05/28 04:06:54;;;;;;;5.67;1.85;;;;;;;12.24;64.95;100149.92;1797516;79;21122;-69
2022/05/28 04:09:20;;;;;;;5.33;1.60;;;;;;;13.22;64.53;100147.48;1798752;79;20939;-69
2022/05/28 04:11:46;;;;;;;9.20;2.20;;;;;;;13.65;63.79;100143.68;1798817;79;20966;-69
2022/05/28 04:14:12;;;;;;;5.25;1.45;;;;;;;13.89;63.16;100144.58;1798877;79;21115;-69
2022/05/28 04:16:38;;;;;;;5.55;2.17;;;;;;;14.00;62.18;100135.16;1793882;79;21045;-70
2022/05/28 04:19:04;;;;;;;4.60;1.20;;;;;;;14.27;61.76;100140.95;1798708;79;21500;-69
2022/05/28 04:21:30;;;;;;;5.22;1.47;;;;;;;14.44;60.95;100140.94;1798590;79;21005;-70
2022/05/28 04:23:56;;;;;;;8.43;2.05;;;;;;;14.44;60.21;100141.45;1798991;79;21493;-70
2022/05/28 04:26:22;;;;;;;5.97;1.40;;;;;;;14.40;59.54;100141.53;1796428;79;20989;-70
2022/05/28 04:28:48;;;;;;;5.53;1.67;;;;;;;14.47;59.10;100141.87;1798970;79;20963;-70
2022/05/28 04:31:14;;;;;;;10.05;1.52;;;;;;;13.64;57.89;100138.53;1798852;79;22048;-70
2022/05/28 04:33:40;;;;;;;3.98;1.25;;;;;;;12.51;58.14;100146.53;1798990;79;20963;-69
2022/05/28 04:36:06;;;;;;;7.95;1.40;;;;;;;12.41;58.55;100139.33;1796368;79;21044;-70
2022/05/28 04:38:32;;;;;;;4.95;1.40;;;;;;;12.26;58.99;100139.34;1798852;79;20981;-69
2022/05/28 04:40:58;;;;;;;7.90;1.37;;;;;;;11.83;59.34;100141.54;1798999;79;20978;-69
2022/05/28 04:43:24;;;;;;;8.93;1.35;;;;;;;11.59;59.64;100138.60;1799064;79;21079;-69
2022/05/28 04:45:50;;;;;;;5.67;1.85;;;;;;;11.63;59.94;100139.06;1796565;79;21077;-69
2022/05/28 04:48:16;;;;;;;8.08;1.80;;;;;;;11.66;60.24;100134.19;1798873;79;21484;-69
2022/05/28 04:50:42;;;;;;;6.55;1.52;;;;;;;12.22;60.38;100112.66;1798846;79;20962;-70
2022/05/28 04:53:08;;;;;;;6.40;1.92;;;;;;;12.49;60.40;100120.47;1798556;79;21013;-69
2022/05/28 04:55:34;;;;;;;6.70;1.37;;;;;;;12.67;60.44;100118.70;1796930;79;22590;-70
2022/05/28 04:58:00;;;;;;;8.13;1.55;;;;;;;12.72;60.31;100120.31;1798619;79;20988;-70
2022/05/28 05:00:26;;;;;;;10.25;1.40;;;;;;;12.73;60.23;100119.30;1762375;79;20974;-70
2022/05/28 05:02:53;;;;;;;5.12;1.35;;;;;;;12.92;60.18;100113.30;1736968;82;21022;-70
2022/05/28 05:05:19;;;;;;;6.28;1.27;;;;;;;12.97;60.00;100119.75;1713706;82;21484;-70
2022/05/28 05:07:45;;;;;;;5.12;1.40;;;;;;;12.97;59.82;100117.58;1704585;83;21226;-70
2022/05/28 05:10:11;;;;;;;6.45;1.80;;;;;;;13.02;59.69;100125.34;1704297;84;21059;-70
2022/05/28 05:12:38;;;;;;;8.48;1.67;;;;;;;13.05;59.48;100121.47;1704499;83;21083;-70
2022/05/28 05:15:05;;;;;;;4.83;1.25;;;;;;;13.31;59.39;100122.20;1723461;82;21510;-70
2022/05/28 05:17:31;;;;;;;6.85;1.75;;;;;;;13.14;59.08;100126.19;1737022;82;21056;-69
2022/05/28 05:19:57;;;;;;;10.08;2.47;;;;;;;12.62;58.97;100125.98;1736725;82;21210;-70
2022/05/28 05:22:23;;;;;;;7.70;1.30;;;;;;;12.16;58.95;100133.47;1778873;80;21502;-70
2022/05/28 05:24:51;;;;;;;8.35;1.50;;;;;;;11.71;58.98;100139.85;1767443;81;21470;-69
2022/05/28 05:27:17;;;;;;;9.43;1.40;;;;;;;11.27;59.12;100142.41;1734745;82;21557;-69
2022/05/28 05:29:43;;;;;;;7.87;1.57;;;;;;;11.02;59.36;100140.95;1781731;80;21034;-69
2022/05/28 05:32:09;;;;;;;4.80;1.57;;;;;;;10.95;59.59;100133.34;1766955;81;21138;-69
2022/05/28 05:34:37;;;;;;;8.15;1.65;;;;;;;10.87;59.77;100134.75;1735166;82;21042;-69
2022/05/28 05:37:04;;;;;;;7.62;1.75;;;;;;;10.82;59.95;100134.45;1767407;81;21738;-69
2022/05/28 05:39:30;;;;;;;5.47;1.55;;;;;;;10.81;60.14;100135.44;1733088;82;21109;-69
2022/05/28 05:41:56;;;;;;;8.80;1.45;;;;;;;10.84;60.31;100133.25;1783248;80;20978;-69
2022/05/28 05:44:22;;;;;;;13.88;2.12;;;;;;;11.04;60.45;100114.94;1763374;81;21139;-69
2022/05/28 05:46:48;;;;;;;16.82;2.52;;;;;;;11.25;60.47;100124.92;1736032;81;21431;-69
2022/05/28 05:49:14;;;;;;;10.60;1.62;;;;;;;11.28;60.47;100116.05;1752861;80;21607;-69
2022/05/28 05:51:44;;;;;;;10.43;2.02;;;;;;;11.30;60.43;100123.36;1712209;82;20974;-69
2022/05/28 05:54:10;;;;;;;8.20;1.50;;;;;;;11.75;60.45;100118.94;1752983;80;21049;-70
2022/05/28 05:56:36;;;;;;;8.95;1.45;;;;;;;12.45;60.36;100110.66;1746805;81;21135;-70
2022/05/28 05:59:02;;;;;;;7.30;1.50;;;;;;;12.44;60.05;100115.70;1758143;80;20965;-70
2022/05/28 06:01:28;;;;;;;9.15;1.72;;;;;;;12.11;59.99;100121.66;1754242;81;21010;-70
2022/05/28 06:03:54;;;;;;;11.97;2.62;;;;;;;11.82;59.96;100114.52;1783387;80;21018;-70
2022/05/28 06:06:20;;;;;;;10.18;1.70;;;;;;;11.63;59.95;100107.02;1767337;81;21005;-70
2022/05/28 06:08:47;;;;;;;8.23;1.80;;;;;;;11.54;59.89;100112.43;1783627;80;21023;-70
2022/05/28 06:11:13;;;;;;;14.53;2.00;;;;;;;12.02;59.91;100108.92;1765379;81;21427;-70
2022/05/28 06:13:39;;;;;;;5.72;1.22;;;;;;;12.18;59.69;100111.87;1776194;80;21046;-70
2022/05/28 06:16:05;;;;;;;5.60;1.02;;;;;;;12.08;59.59;100100.15;1733172;81;21061;-69
2022/05/28 06:18:31;;;;;;;7.62;2.15;;;;;;;12.07;59.46;100107.84;1738594;81;21026;-70
2022/05/28 06:20:59;;;;;;;9.48;1.70;;;;;;;11.79;59.38;100110.35;1738147;82;21158;-69
2022/05/28 06:23:26;;;;;;;7.40;1.27;;;;;;;11.75;59.45;100106.92;1736068;81;21500;-69
2022/05/28 06:25:53;;;;;;;12.70;1.65;;;;;;;12.27;59.48;100102.25;1740428;81;21051;-69
2022/05/28 06:28:19;;;;;;;6.40;1.47;;;;;;;12.26;59.27;100089.88;1740668;81;20902;-70
2022/05/28 06:30:47;;;;;;;10.05;1.50;;;;;;;11.93;59.09;100102.84;1738515;81;21035;-70
2022/05/28 06:33:13;;;;;;;11.33;2.15;;;;;;;11.58;59.05;100090.19;1739802;81;21137;-70
2022/05/28 06:35:39;;;;;;;9.70;2.02;;;;;;;11.34;59.06;100095.30;1737761;81;21010;-70
2022/05/28 06:38:05;;;;;;;6.33;1.47;;;;;;;11.27;59.15;100088.19;1740646;81;21053;-69
2022/05/28 06:40:31;;;;;;;7.85;1.27;;;;;;;11.29;59.19;100085.69;1738828;81;21081;-69
2022/05/28 06:42:57;;;;;;;9.80;1.55;;;;;;;11.64;59.25;100085.98;1739419;81;21671;-69
2022/05/28 06:45:24;;;;;;;8.38;2.20;;;;;;;12.05;59.12;100076.47;1738545;81;21042;-70
2022/05/28 06:47:50;;;;;;;7.47;1.27;;;;;;;12.34;59.03;100077.75;1738183;81;21036;-70
2022/05/28 06:53:03;;;;;;;10.25;2.02;;;;;;;12.57;58.63;100074.88;1737247;82;21034;-70
2022/05/28 06:55:29;;;;;;;8.50;1.20;;;;;;;12.39;58.43;100076.66;1738642;81;20998;-69
2022/05/28 06:57:55;;;;;;;9.33;1.35;;;;;;;12.07;58.28;100075.77;1737760;81;21177;-69
2022/05/28 07:00:21;;;;;;;8.33;1.27;;;;;;;11.85;58.26;100076.73;1729084;82;21590;-69
2022/05/28 07:02:47;;;;;;;11.83;1.65;;;;;;;11.60;58.20;100080.67;1728132;82;20999;-70
2022/05/28 07:05:14;;;;;;;9.75;1.00;;;;;;;11.46;58.24;100072.48;1733408;82;20938;-70
2022/05/28 07:07:41;;;;;;;8.08;1.02;;;;;;;11.52;58.27;100070.41;1724679;82;21038;-70
2022/05/28 07:10:09;;;;;;;4.62;1.00;;;;;;;11.38;58.26;100069.05;1726503;82;21134;-69
2022/05/28 07:12:35;;;;;;;7.12;1.35;;;;;;;11.19;58.34;100078.95;1737318;81;21091;-70
2022/05/28 07:15:01;;;;;;;7.97;1.40;;;;;;;11.14;58.53;100085.32;1741102;82;21093;-69
2022/05/28 07:17:27;;;;;;;6.37;1.40;;;;;;;11.08;58.73;100080.22;1737572;82;21340;-69
2022/05/28 07:19:53;;;;;;;8.28;1.47;;;;;;;11.06;58.92;100074.71;1732686;82;21022;-69
2022/05/28 07:22:19;;;;;;;5.55;1.52;;;;;;;11.05;59.08;100067.73;1731360;82;21121;-70
2022/05/28 07:24:45;;;;;;;7.62;1.75;;;;;;;11.03;59.21;100070.58;1737753;82;20999;-69
2022/05/28 07:27:12;;;;;;;7.55;1.77;;;;;;;11.05;59.35;100071.20;1736730;82;21482;-69
2022/05/28 07:29:39;;;;;;;7.90;1.20;;;;;;;11.01;59.46;100071.27;1733102;81;21061;-69
2022/05/28 07:32:07;;;;;;;8.80;1.90;;;;;;;10.99;59.57;100059.94;1728104;82;21054;-69
2022/05/28 07:34:34;;;;;;;8.75;1.37;;;;;;;11.06;59.70;100071.55;1731064;81;21141;-69
2022/05/28 07:37:00;;;;;;;7.53;1.25;;;;;;;11.19;59.77;100056.26;1732918;81;21034;-69
2022/05/28 07:39:26;;;;;;;5.17;1.10;;;;;;;11.31;59.81;100056.12;1732554;81;21041;-69
2022/05/28 07:41:52;;;;;;;4.62;1.00;;;;;;;11.37;59.76;100052.20;1715797;82;21506;-69
2022/05/28 07:44:18;;;;;;;3.25;1.57;;;;;;;11.49;59.74;100050.75;1723501;82;21015;-69
2022/05/28 07:46:44;;;;;;;4.78;2.25;;;;;;;11.58;59.73;100054.64;1705718;82;21150;-69
2022/05/28 07:49:11;;;;;;;6.20;1.82;;;;;;;11.45;59.67;100044.11;1715833;81;20998;-69
2022/05/28 07:51:37;;;;;;;11.45;2.90;;;;;;;11.24;59.71;100062.70;1726153;81;21067;-69
2022/05/28 07:54:04;;;;;;;6.40;1.75;;;;;;;11.00;59.91;100097.63;1721127;81;21036;-69
2022/05/28 07:56:30;;;;;;;3.92;1.22;;;;;;;10.49;60.34;100084.00;1730873;81;21041;-69
2022/05/28 07:58:57;;;;;;;7.30;1.10;;;;;;;9.88;60.98;100094.64;1704464;82;21781;-69
2022/05/28 08:01:31;;;;;;;7.22;2.12;;;;;;;9.33;61.94;100127.39;1728039;81;21550;-69
2022/05/28 08:03:59;;;;;;;9.03;2.02;;;;;;;8.97;62.52;100150.05;1718657;81;21495;-69
2022/05/28 08:06:26;;;;;;;4.30;0.85;;;;;;;8.67;63.14;100143.52;1712148;82;21097;-69
2022/05/28 08:08:52;;;;;;;2.12;0.85;;;;;;;8.39;63.67;100148.28;1710616;82;21018;-69
2022/05/28 08:11:18;;;;;;;4.25;0.60;;;;;;;8.12;64.27;100147.17;1722831;81;21130;-69
2022/05/28 08:13:45;;;;;;;3.05;0.62;;;;;;;7.93;64.86;100139.44;1712142;81;21129;-69
2022/05/28 08:16:11;;;;;;;4.95;0.95;;;;;;;7.80;65.42;100124.45;1716046;81;21632;-69
2022/05/28 08:18:39;;;;;;;3.20;0.57;;;;;;;7.82;65.93;100119.81;1728203;81;21572;-69
2022/05/28 08:23:49;;;;;;;2.85;0.80;;;;;;;8.20;66.66;100111.31;1703073;82;21085;-69
2022/05/28 08:26:15;;;;;;;1.57;0.68;;;;;;;8.86;67.09;100110.48;1697192;82;20875;-69
2022/05/28 08:28:41;;;;;;;3.30;0.60;;;;;;;9.46;67.56;100110.39;1730120;81;21005;-69
2022/05/28 08:31:07;;;;;;;3.33;1.10;;;;;;;10.01;67.82;100102.91;1700924;82;21621;-69
2022/05/28 08:33:34;;;;;;;5.50;1.45;;;;;;;10.36;68.15;100102.42;1700739;82;21557;-69
2022/05/28 08:36:00;;;;;;;2.92;1.20;;;;;;;10.72;68.51;100105.85;1726275;81;21109;-69
2022/05/28 08:38:27;;;;;;;5.45;1.45;;;;;;;11.06;68.82;100115.57;1729782;81;21025;-69
2022/05/28 08:41:12;;;;;;;5.45;1.30;;;;;;;11.45;68.86;100114.87;1726799;82;21521;-70
2022/05/28 08:43:55;;;;;;;3.72;0.98;;;;;;;11.73;68.97;100104.92;1701086;82;21010;-69
2022/05/28 08:46:21;;;;;;;3.02;0.85;;;;;;;11.90;68.95;100101.05;1661302;82;21054;-69
2022/05/28 08:48:50;;;;;;;2.75;0.85;;;;;;;12.03;68.99;100085.20;1715828;82;21160;-69
2022/05/28 08:51:48;;;;;;;3.85;0.60;;;;;;;12.09;69.00;100083.61;1704366;82;21010;-69
2022/05/28 08:54:57;;;;;;;4.12;0.98;;;;;;;12.19;68.99;100088.98;1706014;82;21086;-69
2022/05/28 08:57:18;;;;;;;3.33;1.05;;;;;;;12.35;68.99;100095.42;1671629;82;21083;-69
2022/05/28 08:59:49;;;;;;;4.28;1.00;;;;;;;12.68;68.79;100093.61;1685774;82;21041;-69
2022/05/28 09:02:29;;;;;;;6.30;1.15;;;;;;;12.60;68.38;100103.09;1755683;80;21469;-70
2022/05/28 09:04:55;;;;;;;4.15;1.50;;;;;;;12.59;68.15;100102.80;1713640;82;21054;-70
2022/05/28 09:07:22;;;;;;;5.22;2.17;;;;;;;12.55;67.88;100105.52;1745538;80;21273;-69
2022/05/28 09:09:49;;;;;;;3.72;1.67;;;;;;;13.04;67.74;100099.72;1748328;80;21032;-70
2022/05/28 09:12:28;;;;;;;2.50;1.30;;;;;;;12.97;67.24;100102.86;1743081;80;21001;-69
2022/05/28 09:14:54;;;;;;;4.60;1.37;;;;;;;12.71;66.85;100107.95;1758987;80;21119;-69
2022/05/28 09:17:32;;;;;;;3.92;1.10;;;;;;;12.99;66.79;100108.83;1714316;82;20898;-69
2022/05/28 09:20:08;;;;;;;3.55;1.20;;;;;;;13.39;66.44;100080.56;1742051;81;21017;-70
2022/05/28 09:22:34;;;;;;;6.95;1.90;;;;;;;13.47;65.84;100105.33;1748235;80;21046;-69
2022/05/28 09:25:00;;;;;;;2.52;1.00;;;;;;;13.45;65.38;100110.06;1709860;82;21014;-69
2022/05/28 09:28:02;;;;;;;3.12;1.00;;;;;;;13.23;64.91;100104.43;1752594;81;21111;-69
2022/05/28 09:30:51;;;;;;;11.48;3.17;;;;;;;13.08;64.62;100110.38;1748623;80;21513;-69
2022/05/28 09:33:31;;;;;;;4.15;1.02;;;;;;;13.10;64.32;100115.04;1738952;81;21062;-69
2022/05/28 09:36:12;;;;;;;6.15;1.80;;;;;;;13.00;63.70;100110.50;1740614;81;21068;-69
2022/05/28 09:38:50;;;;;;;4.05;1.87;;;;;;;12.63;62.61;100092.03;1710170;82;21021;-69
2022/05/28 09:41:47;;;;;;;4.22;0.90;;;;;;;12.63;62.61;100092.03;1749501;80;21018;-69
2022/05/28 09:44:19;;;;;;;3.58;1.10;;;;;;;13.32;61.72;100105.13;1742575;81;21052;-69
2022/05/28 09:46:45;;;;;;;4.22;1.25;;;;;;;13.32;61.72;100105.13;1717711;82;21009;-69
2022/05/28 09:49:21;;;;;;;6.87;1.47;;;;;;;13.69;61.39;100110.62;1712407;82;21124;-70
2022/05/28 09:52:09;;;;;;;7.33;1.85;;;;;;;13.81;60.56;100105.03;1744235;80;21518;-70
2022/05/28 09:54:36;;;;;;;4.78;2.02;;;;;;;13.81;60.24;100106.38;1715723;80;21071;-70
2022/05/28 09:57:09;;;;;;;5.83;1.47;;;;;;;13.75;59.59;100099.96;1735386;80;21133;-70
2022/05/28 09:59:59;;;;;;;5.72;2.12;;;;;;;13.66;59.04;100098.45;1711811;82;21425;-69
2022/05/28 10:04:28;;;;;;;4.90;1.22;;;;;;;13.64;58.66;100102.36;1732975;81;21105;-70
2022/05/28 10:05:16;;;;;;;5.22;1.15;;;;;;;13.75;58.24;100115.21;1683714;83;21087;-70
2022/05/28 10:07:47;;;;;;;3.85;1.12;;;;;;;13.91;57.54;100108.17;1699872;83;21818;-70
2022/05/28 10:10:23;;;;;;;8.38;2.10;;;;;;;13.92;56.59;100104.48;1704987;82;21015;-69
2022/05/28 10:12:50;;;;;;;6.45;1.77;;;;;;;13.88;55.86;100108.06;1702497;82;21091;-70
2022/05/28 10:15:24;;;;;;;5.15;1.90;;;;;;;14.02;55.69;100100.91;1708907;82;21551;-70
2022/05/28 10:18:03;;;;;;;8.00;1.77;;;;;;;14.15;55.37;100095.59;1685769;82;21015;-70
2022/05/28 10:20:29;;;;;;;6.60;2.30;;;;;;;14.24;55.14;100107.83;1705200;82;21525;-70
2022/05/28 10:22:56;;;;;;;9.30;1.40;;;;;;;14.32;54.86;100093.41;1704513;82;22942;-70
2022/05/28 10:25:48;;;;;;;3.65;1.30;;;;;;;14.47;54.59;100102.97;1705465;82;21057;-70
2022/05/28 10:28:26;;;;;;;3.15;1.27;;;;;;;14.30;53.99;100092.26;1700825;83;21021;-70
2022/05/28 10:30:52;;;;;;;5.92;2.08;;;;;;;14.36;53.79;100098.19;1711778;82;21037;-70
2022/05/28 10:33:21;;;;;;;4.28;1.17;;;;;;;14.22;53.69;100099.13;1738920;81;21046;-70
2022/05/28 10:35:47;;;;;;;7.35;1.57;;;;;;;14.36;53.80;100097.34;1733817;82;21569;-70
2022/05/28 10:38:27;;;;;;;4.22;1.35;;;;;;;14.38;53.44;100090.78;1744461;81;20982;-70
2022/05/28 10:40:56;;;;;;;7.80;1.30;;;;;;;14.27;53.38;100096.69;1763841;81;21084;-70
2022/05/28 10:43:31;;;;;;;3.87;1.35;;;;;;;14.15;53.30;100098.28;1739749;81;21044;-69
2022/05/28 10:46:29;;;;;;;2.92;1.00;;;;;;;14.05;53.33;100088.95;1731962;81;21077;-70
2022/05/28 10:49:07;;;;;;;5.08;1.77;;;;;;;14.33;53.42;100096.39;1732287;81;21081;-70
2022/05/28 10:52:01;;;;;;;4.12;1.82;;;;;;;14.37;53.31;100093.14;1732272;82;21028;-70
2022/05/28 10:55:03;;;;;;;5.03;1.32;;;;;;;14.25;53.33;100094.70;1754972;81;21510;-70
2022/05/28 10:57:59;;;;;;;4.58;1.25;;;;;;;13.89;53.21;100095.50;1761521;81;21056;-70
2022/05/28 11:01:03;;;;;;;6.05;1.20;;;;;;;13.42;53.03;100110.46;1763984;80;21151;-70
2022/05/28 11:03:35;;;;;;;6.50;1.27;;;;;;;13.27;53.19;100107.04;1732518;82;21066;-70
2022/05/28 11:06:21;;;;;;;2.20;0.90;;;;;;;13.40;53.30;100115.20;1740574;82;21060;-70
2022/05/28 11:09:08;;;;;;;7.17;1.98;;;;;;;13.60;53.07;100107.79;1764667;79;21033;-70
2022/05/28 11:12:15;;;;;;;6.75;1.67;;;;;;;13.70;53.21;100118.98;1768360;79;21012;-70
2022/05/28 11:14:50;;;;;;;2.95;0.90;;;;;;;13.75;52.91;100109.85;1787682;79;21169;-70
2022/05/28 11:17:30;;;;;;;5.30;1.40;;;;;;;14.00;52.77;100111.02;1767094;81;21515;-69
2022/05/28 11:20:31;;;;;;;4.90;1.12;;;;;;;14.12;52.54;100112.09;1791670;79;21010;-69
2022/05/28 11:23:13;;;;;;;3.10;1.12;;;;;;;14.48;52.70;100112.68;1736918;82;20987;-70
2022/05/28 11:25:53;;;;;;;3.55;0.80;;;;;;;14.58;52.04;100113.62;1768132;79;20974;-70
2022/05/28 11:28:45;;;;;;;3.42;1.27;;;;;;;14.93;51.96;100096.85;1766071;80;21277;-69
2022/05/28 11:31:23;;;;;;;6.30;2.35;;;;;;;15.12;51.65;100108.65;1768746;79;21476;-69
2022/05/28 11:33:49;;;;;;;6.40;1.50;;;;;;;14.94;51.16;100114.63;1765607;79;21060;-69
2022/05/28 11:36:28;;;;;;;5.50;1.60;;;;;;;14.75;50.84;100104.67;1779988;79;20883;-69
2022/05/28 11:39:01;;;;;;;3.47;1.37;;;;;;;14.74;50.79;100097.13;1769085;80;20995;-69
2022/05/28 11:41:36;;;;;;;2.70;1.17;;;;;;;14.95;50.98;100098.30;1759116;79;21053;-69
2022/05/28 11:44:22;;;;;;;5.83;1.80;;;;;;;15.06;50.68;100094.16;1763522;79;21012;-72
2022/05/28 11:47:14;;;;;;;3.83;0.98;;;;;;;15.08;50.54;100101.52;1732124;79;21004;-70
2022/05/28 11:52:46;;;;;;;3.87;1.05;;;;;;;15.30;49.69;100092.73;1746093;81;20993;-69
2022/05/28 11:55:16;;;;;;;2.92;1.00;;;;;;;15.15;49.10;100086.74;1752200;79;21251;-70
2022/05/28 11:57:48;;;;;;;5.87;1.67;;;;;;;15.18;49.01;100079.09;1765859;79;20989;-70